Accueil
METAR-TAF:

METAR-TAF

Aéroports :

Aéroport de Castres-Mazamet

Castres, France

latitude: 43-33-25N, longitude: 2-17-21E, altitude: 239 m

Observation

Le bulletin a été fait il y a 39 minutes, à 05:30 UTC
Vent 11 kt de est/sud-est
Température 18°C
Humidité 68%
Pression 1017 hPa
Visibilité 10 km ou plus
pas de nuages en-dessous de 1500 mètres et pas de cumulonimbus.

METAR: LFCK 240530Z AUTO 11011KT CAVOK 18/12 Q1017 NOSIG

Heure: 08:09 (06:09 UTC)

Prévision

Le bulletin a été fait il y a 1 heure et 9 minutes, à 05:00 UTC
Prévision valable du 24 à 06 UTC au 24 à 15 UTC
Vent 8 kt de est/sud-est
Visibilité 10 km ou plus
pas de nuages en-dessous de 1500 mètres et pas de cumulonimbus.
Probabilité 30% :
Temporairement
du 24 à 11 UTC au 24 à 15 UTC
Quelques nuages à une hauteur de 6000 ft, Cumulus congestus.

TAF: LFCK 240500Z 2406/2415 12008KT CAVOK PROB30 TEMPO 2411/2415 FEW060TCU

Observations et prévisions météorologiques de plus de 4000 aéroports (messages METAR et TAF).

Les stations disponibles sont représentées par des disques jaunes et rouges sur la carte.

Passer la souris dessus pour voir le nom de la station.

Cliquer dessus pour voir les observations et prévisions météorologiques.

Pour changer de carte: cliquez sur les boutons verts avec une croix noire pour zoomer, sur le bouton vert avec un tiret pour effectuer un zoom arrière, ou sur les flèches vertes pour les cartes adjacentes.


METAR-TAF: